createdAt,value
2022-11-20T00:00:57.029Z,92.10
2022-11-20T00:03:25.188Z,84.60
2022-11-20T00:05:53.020Z,87.10
2022-11-20T00:08:21.353Z,94.10
2022-11-20T00:10:49.182Z,90.30
2022-11-20T00:13:16.983Z,81.00
2022-11-20T00:15:46.191Z,81.00
2022-11-20T00:18:14.061Z,93.30
2022-11-20T00:20:41.903Z,91.50
2022-11-20T00:23:09.748Z,84.30
2022-11-20T00:25:37.584Z,79.90
2022-11-20T00:28:05.754Z,90.70
2022-11-20T00:30:33.602Z,90.50
2022-11-20T00:33:02.917Z,83.00
2022-11-20T00:35:30.810Z,83.30
2022-11-20T00:37:58.650Z,92.60
2022-11-20T00:40:26.526Z,95.90
2022-11-20T00:42:54.367Z,89.70
2022-11-20T00:45:22.219Z,86.80
2022-11-20T00:47:50.092Z,94.90
2022-11-20T00:50:19.377Z,96.70
2022-11-20T00:52:47.223Z,90.10
2022-11-20T00:55:15.198Z,89.80
2022-11-20T00:57:43.038Z,92.70
2022-11-20T01:00:11.678Z,94.90
2022-11-20T01:02:39.521Z,86.40
2022-11-20T01:05:07.686Z,82.60
2022-11-20T01:07:36.942Z,90.80
2022-11-20T01:10:05.138Z,92.40
2022-11-20T01:12:32.976Z,83.90
2022-11-20T01:15:00.858Z,84.40
2022-11-20T01:17:28.696Z,90.20
2022-11-20T01:19:56.551Z,91.60
2022-11-20T01:22:24.446Z,87.70
2022-11-20T01:24:53.628Z,85.90
2022-11-20T01:27:21.486Z,93.80
2022-11-20T01:29:49.315Z,95.30
2022-11-20T01:32:17.172Z,90.00
2022-11-20T01:34:45.007Z,87.40
2022-11-20T01:37:12.875Z,92.60
2022-11-20T01:39:40.710Z,94.30
2022-11-20T01:42:28.395Z,87.70
2022-11-20T01:44:57.979Z,85.30
2022-11-20T01:47:33.728Z,93.40
2022-11-20T01:50:07.494Z,94.40
2022-11-20T01:52:39.809Z,87.80
2022-11-20T01:55:11.081Z,88.60
2022-11-20T01:57:41.878Z,95.70
2022-11-20T02:00:13.931Z,93.90
2022-11-20T02:02:44.989Z,89.80
2022-11-20T02:05:20.108Z,91.10
2022-11-20T02:07:49.185Z,95.30
2022-11-20T02:10:17.292Z,91.30
2022-11-20T02:13:04.076Z,88.00
2022-11-20T02:15:32.355Z,91.90
2022-11-20T02:18:00.230Z,95.70
2022-11-20T02:20:28.311Z,90.60
2022-11-20T02:22:59.842Z,91.80
2022-11-20T02:25:31.681Z,94.60
2022-11-20T02:27:59.551Z,96.30
2022-11-20T02:30:27.527Z,90.20
2022-11-20T02:32:55.384Z,88.50
2022-11-20T02:35:44.035Z,94.10
2022-11-20T02:38:12.171Z,90.70
2022-11-20T02:40:41.418Z,87.30
2022-11-20T02:43:10.382Z,90.60
2022-11-20T02:45:38.500Z,95.30
2022-11-20T02:48:08.641Z,90.80
2022-11-20T02:50:39.682Z,88.60
2022-11-20T02:53:08.047Z,95.30
2022-11-20T02:55:36.233Z,96.00
2022-11-20T02:58:05.442Z,91.20
2022-11-20T03:00:33.594Z,88.30
2022-11-20T03:03:01.463Z,93.90
2022-11-20T03:05:29.293Z,94.90
2022-11-20T03:07:57.126Z,90.30
2022-11-20T03:10:25.003Z,90.40
2022-11-20T03:12:56.236Z,95.00
2022-11-20T03:15:26.023Z,91.90
2022-11-20T03:17:56.621Z,88.40
2022-11-20T03:20:24.623Z,91.80
2022-11-20T03:22:53.430Z,95.10
2022-11-20T03:25:21.302Z,94.40
2022-11-20T03:27:49.184Z,91.70
2022-11-20T03:30:17.083Z,91.20
2022-11-20T03:32:46.315Z,95.00
2022-11-20T03:35:14.173Z,91.10
2022-11-20T03:37:42.081Z,95.40
2022-11-20T03:40:11.108Z,96.80
2022-11-20T03:42:47.700Z,94.00
2022-11-20T03:45:16.238Z,91.40
2022-11-20T03:47:45.928Z,92.60
2022-11-20T03:50:15.127Z,95.80
2022-11-20T03:52:43.155Z,93.30
2022-11-20T03:55:11.355Z,89.90
2022-11-20T03:57:39.188Z,93.30
2022-11-20T04:00:08.425Z,94.20
2022-11-20T04:02:36.250Z,89.40
2022-11-20T04:05:05.930Z,86.20
2022-11-20T04:07:36.304Z,93.90
2022-11-20T04:10:04.568Z,91.60
2022-11-20T04:12:34.806Z,88.00
2022-11-20T04:15:03.086Z,91.60
2022-11-20T04:17:30.934Z,94.40
2022-11-20T04:19:58.758Z,88.20
2022-11-20T04:22:28.080Z,85.60
2022-11-20T04:24:55.893Z,94.60
2022-11-20T04:27:23.711Z,95.20
2022-11-20T04:29:51.522Z,90.50
2022-11-20T04:32:19.369Z,91.10
2022-11-20T04:34:47.188Z,95.90
2022-11-20T04:37:15.014Z,91.00
2022-11-20T04:39:45.566Z,87.80
2022-11-20T04:42:31.748Z,94.20
2022-11-20T04:44:59.836Z,96.80
2022-11-20T04:47:27.677Z,88.90
2022-11-20T04:49:55.633Z,90.60
2022-11-20T04:52:23.553Z,95.70
2022-11-20T04:54:54.320Z,91.60
2022-11-20T04:57:22.874Z,89.50
2022-11-20T04:59:50.700Z,93.50
2022-11-20T05:02:18.753Z,96.00
2022-11-20T05:04:46.644Z,89.00
2022-11-20T05:07:14.566Z,87.90
2022-11-20T05:09:42.489Z,93.80
2022-11-20T05:12:11.866Z,93.20
2022-11-20T05:14:39.718Z,88.70
2022-11-20T05:17:07.732Z,91.60
2022-11-20T05:19:35.574Z,95.70
2022-11-20T05:22:03.432Z,98.30
2022-11-20T05:24:31.303Z,93.60
2022-11-20T05:26:59.143Z,96.00
2022-11-20T05:29:28.362Z,97.90
2022-11-20T05:31:56.203Z,96.20
2022-11-20T05:34:24.059Z,95.20
2022-11-20T05:36:51.978Z,97.70
2022-11-20T05:39:20.331Z,97.20
2022-11-20T05:42:08.343Z,92.90
2022-11-20T05:44:37.541Z,94.30
2022-11-20T05:47:05.439Z,96.80
2022-11-20T05:49:33.557Z,97.00
2022-11-20T05:52:01.420Z,95.90
2022-11-20T05:54:29.251Z,96.50
2022-11-20T05:56:57.104Z,96.50
2022-11-20T05:59:25.018Z,92.90
2022-11-20T06:01:54.212Z,94.00
2022-11-20T06:04:22.070Z,95.80
2022-11-20T06:06:49.924Z,88.70
2022-11-20T06:09:17.789Z,88.70
2022-11-20T06:11:45.629Z,91.30
2022-11-20T06:14:13.940Z,91.90
2022-11-20T06:16:41.782Z,87.90
2022-11-20T06:19:10.985Z,92.20
2022-11-20T06:21:38.890Z,93.60
2022-11-20T06:24:07.446Z,93.70
2022-11-20T06:26:35.290Z,96.50
2022-11-20T06:29:03.125Z,91.40
2022-11-20T06:31:33.652Z,89.30
2022-11-20T06:34:01.448Z,91.60
2022-11-20T06:36:30.614Z,90.70
2022-11-20T06:38:58.463Z,85.20
2022-11-20T06:41:26.383Z,94.60
2022-11-20T06:43:54.252Z,96.30
2022-11-20T06:46:22.730Z,97.10
2022-11-20T06:48:51.477Z,97.10
2022-11-20T06:51:19.800Z,92.50
2022-11-20T06:53:49.421Z,95.60
2022-11-20T06:56:17.283Z,96.80
2022-11-20T06:58:45.323Z,95.20
2022-11-20T07:01:15.514Z,96.10
2022-11-20T07:03:43.711Z,96.90
2022-11-20T07:06:12.247Z,96.20
2022-11-20T07:08:40.074Z,94.40
2022-11-20T07:11:10.173Z,95.00
2022-11-20T07:13:38.054Z,95.40
2022-11-20T07:16:08.728Z,91.50
2022-11-20T07:18:37.115Z,87.40
2022-11-20T07:21:06.288Z,93.50
2022-11-20T07:23:34.245Z,76.50
2022-11-20T07:26:05.531Z,94.70
2022-11-20T07:28:34.960Z,91.60
2022-11-20T07:31:03.053Z,96.40
2022-11-20T07:33:31.298Z,97.30
2022-11-20T07:36:00.843Z,95.20
2022-11-20T07:38:28.739Z,91.70
2022-11-20T07:40:57.623Z,94.40
2022-11-20T07:43:26.122Z,96.50
2022-11-20T07:45:57.160Z,95.00
2022-11-20T07:48:25.042Z,92.70
2022-11-20T07:50:55.842Z,93.60
2022-11-20T07:53:23.769Z,96.10
2022-11-20T07:55:53.251Z,92.80
2022-11-20T07:58:21.257Z,82.20
2022-11-20T08:00:49.191Z,80.70
2022-11-20T08:03:24.429Z,85.40
2022-11-20T08:05:53.197Z,86.60
2022-11-20T08:08:21.141Z,88.20
2022-11-20T08:10:49.034Z,92.10
2022-11-20T08:13:34.486Z,92.30
2022-11-20T08:16:02.336Z,99.90
2022-11-20T08:18:32.681Z,94.20
2022-11-20T08:21:04.540Z,99.90
2022-11-20T08:23:33.492Z,99.90
2022-11-20T08:26:01.357Z,93.40
2022-11-20T08:28:29.358Z,89.00
2022-11-20T08:31:01.170Z,84.60
2022-11-20T08:33:29.451Z,86.30
2022-11-20T08:36:02.510Z,85.20
2022-11-20T08:38:30.610Z,80.40
2022-11-20T08:41:16.610Z,79.00
2022-11-20T08:43:44.521Z,79.90
2022-11-20T08:46:12.470Z,77.50
2022-11-20T08:48:40.330Z,79.80
2022-11-20T08:51:09.542Z,82.10
2022-11-20T08:53:37.377Z,83.40
2022-11-20T08:56:05.609Z,90.20
2022-11-20T08:58:54.864Z,86.60
2022-11-20T09:01:22.003Z,91.90
2022-11-20T09:03:49.944Z,93.70
2022-11-20T09:06:19.428Z,90.00
2022-11-20T09:08:47.270Z,91.80
2022-11-20T09:11:15.120Z,90.20
2022-11-20T09:13:42.935Z,91.50
2022-11-20T09:16:11.530Z,94.00
2022-11-20T09:18:39.704Z,97.10
2022-11-20T09:21:09.385Z,95.80
2022-11-20T09:23:39.995Z,93.20
2022-11-20T09:26:09.289Z,96.70
2022-11-20T09:28:37.360Z,97.50
2022-11-20T09:31:07.807Z,94.10
2022-11-20T09:33:35.693Z,94.70
2022-11-20T09:36:03.628Z,96.70
2022-11-20T09:38:31.555Z,92.70
2022-11-20T09:41:05.045Z,91.80
2022-11-20T09:43:53.816Z,96.00
2022-11-20T09:46:29.678Z,99.90
2022-11-20T09:49:20.000Z,99.90
2022-11-20T09:51:55.684Z,97.30
2022-11-20T09:54:28.184Z,98.90
2022-11-20T09:57:00.777Z,99.90
2022-11-20T09:59:35.816Z,98.80
2022-11-20T10:02:10.381Z,99.90
2022-11-20T10:04:46.878Z,99.90
2022-11-20T10:07:35.269Z,99.90
2022-11-20T10:10:03.255Z,99.50
2022-11-20T10:12:47.954Z,91.40
2022-11-20T10:15:31.767Z,92.00
2022-11-20T10:18:24.004Z,98.40
2022-11-20T10:21:01.289Z,99.90
2022-11-20T10:23:44.379Z,97.60
2022-11-20T10:26:23.599Z,98.60
2022-11-20T10:29:08.860Z,99.90
2022-11-20T10:31:39.438Z,99.90
2022-11-20T10:34:19.377Z,99.90
2022-11-20T10:36:57.028Z,99.90
2022-11-20T10:39:33.283Z,99.90
2022-11-20T10:42:02.633Z,99.70
2022-11-20T10:44:53.893Z,99.30
2022-11-20T10:47:24.321Z,99.90
2022-11-20T10:49:55.151Z,99.90
2022-11-20T10:52:31.099Z,99.90
2022-11-20T10:55:07.515Z,99.30
2022-11-20T10:57:53.082Z,98.90
2022-11-20T11:00:22.578Z,97.30
2022-11-20T11:02:51.877Z,94.10
2022-11-20T11:05:35.777Z,99.20
2022-11-20T11:08:04.795Z,99.80
2022-11-20T11:10:42.176Z,99.80
2022-11-20T11:13:20.869Z,99.80
2022-11-20T11:15:50.122Z,99.60
2022-11-20T11:18:26.511Z,99.30
2022-11-20T11:20:55.794Z,99.20
2022-11-20T11:23:36.008Z,99.70
2022-11-20T11:26:06.612Z,93.40
2022-11-20T11:28:35.463Z,92.20
2022-11-20T11:31:04.746Z,92.70
2022-11-20T11:33:34.559Z,94.10
2022-11-20T11:36:04.752Z,92.40
2022-11-20T11:38:36.732Z,86.50
2022-11-20T11:41:06.300Z,91.60
2022-11-20T11:43:54.676Z,92.30
2022-11-20T11:46:35.181Z,96.80
2022-11-20T11:49:14.493Z,89.30
2022-11-20T11:51:52.378Z,91.60
2022-11-20T11:54:25.505Z,91.90
2022-11-20T11:56:54.894Z,91.30
2022-11-20T11:59:28.757Z,90.20
2022-11-20T12:02:04.936Z,92.00
2022-11-20T12:04:45.736Z,93.40
2022-11-20T12:07:44.831Z,92.90
2022-11-20T12:10:17.279Z,90.90
2022-11-20T12:12:48.195Z,98.10
2022-11-20T12:15:28.794Z,99.20
2022-11-20T12:17:58.464Z,99.70
2022-11-20T12:20:31.053Z,92.70
2022-11-20T12:23:06.921Z,93.00
2022-11-20T12:25:38.627Z,92.80
2022-11-20T12:28:20.860Z,90.20
2022-11-20T12:31:00.837Z,90.40
2022-11-20T12:33:44.706Z,91.40
2022-11-20T12:36:23.842Z,96.10
2022-11-20T12:39:23.746Z,96.70
2022-11-20T12:42:27.566Z,92.90
2022-11-20T12:45:30.581Z,95.90
2022-11-20T12:48:22.701Z,99.20
2022-11-20T12:51:15.617Z,93.60
2022-11-20T12:53:52.034Z,91.20
2022-11-20T12:56:30.390Z,94.60
2022-11-20T12:59:18.165Z,99.90
2022-11-20T13:01:54.018Z,99.90
2022-11-20T13:04:46.236Z,95.90
2022-11-20T13:07:18.125Z,96.30
2022-11-20T13:09:47.920Z,93.60
2022-11-20T13:12:21.820Z,97.40
2022-11-20T13:14:57.090Z,92.50
2022-11-20T13:17:32.320Z,98.40
2022-11-20T13:20:00.673Z,98.50
2022-11-20T13:22:44.034Z,91.80
2022-11-20T13:25:16.312Z,92.30
2022-11-20T13:27:49.944Z,92.00
2022-11-20T13:30:20.041Z,92.00
2022-11-20T13:32:53.937Z,92.00
2022-11-20T13:35:31.240Z,94.80
2022-11-20T13:38:06.685Z,95.80
2022-11-20T13:40:36.096Z,92.00
2022-11-20T13:43:12.692Z,92.20
2022-11-20T13:45:40.529Z,92.40
2022-11-20T13:48:22.497Z,92.60
2022-11-20T13:51:00.492Z,93.10
2022-11-20T13:53:50.717Z,97.70
2022-11-20T13:56:27.207Z,99.90
2022-11-20T13:59:05.487Z,94.70
2022-11-20T14:01:35.542Z,93.40
2022-11-20T14:04:09.790Z,94.30
2022-11-20T14:06:44.116Z,96.00
2022-11-20T14:09:26.544Z,97.40
2022-11-20T14:11:54.444Z,97.50
2022-11-20T14:14:24.320Z,95.10
2022-11-20T14:16:54.913Z,98.80
2022-11-20T14:19:32.294Z,94.40
2022-11-20T14:22:12.399Z,92.80
2022-11-20T14:24:41.628Z,92.60
2022-11-20T14:27:15.473Z,93.50
2022-11-20T14:29:45.151Z,94.00
2022-11-20T14:32:13.330Z,95.40
2022-11-20T14:34:43.706Z,99.70
2022-11-20T14:37:16.973Z,98.30
2022-11-20T14:39:52.716Z,95.60
2022-11-20T14:42:22.725Z,98.20
2022-11-20T14:44:51.593Z,97.00
2022-11-20T14:47:23.095Z,94.20
2022-11-20T14:49:51.933Z,96.00
2022-11-20T14:52:21.648Z,93.90
2022-11-20T14:54:52.783Z,94.90
2022-11-20T14:57:26.761Z,94.10
2022-11-20T15:00:06.758Z,97.70
2022-11-20T15:02:36.066Z,98.80
2022-11-20T15:05:05.219Z,95.10
2022-11-20T15:07:36.125Z,96.30
2022-11-20T15:10:07.864Z,93.20
2022-11-20T15:12:38.939Z,93.50
2022-11-20T15:15:08.361Z,95.20
2022-11-20T15:17:39.895Z,96.90
2022-11-20T15:20:13.796Z,96.30
2022-11-20T15:22:41.673Z,95.20
2022-11-20T15:25:16.380Z,96.30
2022-11-20T15:27:45.022Z,94.40
2022-11-20T15:30:17.890Z,95.30
2022-11-20T15:32:46.932Z,94.80
2022-11-20T15:35:15.597Z,95.80
2022-11-20T15:37:44.065Z,99.90
2022-11-20T15:40:12.862Z,95.40
2022-11-20T15:43:05.851Z,94.80
2022-11-20T15:45:41.016Z,95.60
2022-11-20T15:48:13.205Z,99.90
2022-11-20T15:50:48.679Z,99.90
2022-11-20T15:53:16.511Z,94.90
2022-11-20T15:55:44.356Z,95.60
2022-11-20T15:58:13.577Z,96.80
2022-11-20T16:00:41.769Z,95.80
2022-11-20T16:03:12.451Z,96.70
2022-11-20T16:05:40.341Z,95.30
2022-11-20T16:08:11.470Z,95.30
2022-11-20T16:10:39.900Z,98.50
2022-11-20T16:13:30.728Z,99.90
2022-11-20T16:16:01.282Z,98.50
2022-11-20T16:18:29.118Z,96.40
2022-11-20T16:20:57.214Z,96.20
2022-11-20T16:23:25.779Z,99.30
2022-11-20T16:25:53.699Z,99.90
2022-11-20T16:28:22.933Z,96.80
2022-11-20T16:30:50.835Z,96.30
2022-11-20T16:33:19.447Z,96.60
2022-11-20T16:35:47.286Z,96.90
2022-11-20T16:38:15.127Z,98.30
2022-11-20T16:40:42.967Z,99.70
2022-11-20T16:43:12.747Z,96.20
2022-11-20T16:45:44.419Z,94.00
2022-11-20T16:48:15.275Z,92.10
2022-11-20T16:50:51.149Z,91.40
2022-11-20T16:53:19.944Z,92.90
2022-11-20T16:55:48.103Z,94.90
2022-11-20T16:58:16.431Z,96.60
2022-11-20T17:00:51.449Z,97.70
2022-11-20T17:03:20.855Z,95.50
2022-11-20T17:05:48.767Z,95.20
2022-11-20T17:08:16.603Z,95.20
2022-11-20T17:10:44.474Z,95.60
2022-11-20T17:13:12.305Z,95.70
2022-11-20T17:15:40.153Z,95.80
2022-11-20T17:18:09.349Z,99.00
2022-11-20T17:20:37.236Z,97.50
2022-11-20T17:23:05.084Z,95.80
2022-11-20T17:25:34.484Z,96.10
2022-11-20T17:28:02.343Z,96.50
2022-11-20T17:30:30.542Z,96.70
2022-11-20T17:32:58.365Z,96.90
2022-11-20T17:35:27.559Z,97.20
2022-11-20T17:37:55.425Z,98.90
2022-11-20T17:40:27.334Z,99.90
2022-11-20T17:42:55.785Z,98.80
2022-11-20T17:45:23.683Z,97.50
2022-11-20T17:47:51.536Z,96.80
2022-11-20T17:50:19.446Z,97.10
2022-11-20T17:52:48.686Z,97.50
2022-11-20T17:55:16.620Z,98.80
2022-11-20T17:57:52.627Z,99.90
2022-11-20T18:00:21.024Z,98.00
2022-11-20T18:02:49.110Z,97.60
2022-11-20T18:05:17.131Z,97.00
2022-11-20T18:07:45.019Z,97.50
2022-11-20T18:10:14.307Z,99.90
2022-11-20T18:12:42.191Z,99.90
2022-11-20T18:15:10.382Z,99.90
2022-11-20T18:17:38.249Z,99.90
2022-11-20T18:22:57.041Z,99.60
2022-11-20T18:25:26.253Z,98.90
2022-11-20T18:27:54.082Z,95.80
2022-11-20T18:30:22.688Z,96.30
2022-11-20T18:32:50.902Z,97.80
2022-11-20T18:35:18.768Z,98.10
2022-11-20T18:37:46.637Z,97.60
2022-11-20T18:40:15.086Z,98.00
2022-11-20T18:43:01.855Z,98.80
2022-11-20T18:45:30.305Z,99.40
2022-11-20T18:47:58.231Z,99.90
2022-11-20T18:50:26.099Z,99.90
2022-11-20T18:52:53.951Z,99.90
2022-11-20T18:55:24.926Z,99.90
2022-11-20T18:57:55.086Z,99.90
2022-11-20T19:00:25.184Z,99.90
2022-11-20T19:02:54.639Z,99.90
2022-11-20T19:05:22.769Z,99.90
2022-11-20T19:07:50.650Z,99.90
2022-11-20T19:10:20.226Z,99.90
2022-11-20T19:12:48.142Z,99.90
2022-11-20T19:15:17.520Z,99.90
2022-11-20T19:17:45.397Z,99.90
2022-11-20T19:20:13.520Z,99.90
2022-11-20T19:22:41.419Z,99.90
2022-11-20T19:25:10.069Z,99.90
2022-11-20T19:27:38.458Z,99.90
2022-11-20T19:30:07.161Z,99.90
2022-11-20T19:32:36.352Z,99.90
2022-11-20T19:35:04.613Z,99.90
2022-11-20T19:37:34.989Z,99.90
2022-11-20T19:40:04.532Z,99.90
2022-11-20T19:42:32.745Z,99.90
2022-11-20T19:45:00.606Z,99.90
2022-11-20T19:47:52.723Z,99.90
2022-11-20T19:50:17.821Z,99.90
2022-11-20T19:52:45.654Z,99.90
2022-11-20T19:55:13.542Z,99.90
2022-11-20T19:57:41.374Z,99.90
2022-11-20T20:00:10.551Z,99.90
2022-11-20T20:02:38.395Z,99.90
2022-11-20T20:05:07.054Z,99.90
2022-11-20T20:07:36.352Z,99.90
2022-11-20T20:10:04.346Z,99.90
2022-11-20T20:12:32.194Z,99.90
2022-11-20T20:15:00.040Z,99.90
2022-11-20T20:17:27.875Z,99.90
2022-11-20T20:19:55.678Z,99.90
2022-11-20T20:22:23.517Z,99.90
2022-11-20T20:24:52.996Z,99.90
2022-11-20T20:27:20.896Z,99.90
2022-11-20T20:29:48.708Z,99.90
2022-11-20T20:32:16.554Z,99.90
2022-11-20T20:34:44.430Z,99.90
2022-11-20T20:37:12.284Z,99.90
2022-11-20T20:39:40.170Z,99.90
2022-11-20T20:42:09.357Z,99.90
2022-11-20T20:44:54.509Z,99.90
2022-11-20T20:47:22.354Z,99.90
2022-11-20T20:49:50.181Z,99.90
2022-11-20T20:52:18.037Z,99.90
2022-11-20T20:54:45.898Z,99.90
2022-11-20T20:57:15.115Z,99.90
2022-11-20T20:59:42.960Z,99.90
2022-11-20T21:02:12.283Z,99.90
2022-11-20T21:04:40.212Z,99.90
2022-11-20T21:07:08.109Z,99.60
2022-11-20T21:09:35.999Z,99.70
2022-11-20T21:12:04.048Z,99.90
2022-11-20T21:14:33.441Z,99.90
2022-11-20T21:17:01.287Z,99.90
2022-11-20T21:19:29.496Z,98.70
2022-11-20T21:21:59.035Z,99.30
2022-11-20T21:24:27.740Z,99.90
2022-11-20T21:26:56.305Z,99.90
2022-11-20T21:29:25.947Z,99.20
2022-11-20T21:31:55.754Z,99.50
2022-11-20T21:34:24.591Z,99.90
2022-11-20T21:36:52.829Z,99.60
2022-11-20T21:39:22.536Z,99.90
2022-11-20T21:41:50.453Z,99.10
2022-11-20T21:44:33.813Z,99.50
2022-11-20T21:47:03.058Z,99.90
2022-11-20T21:49:30.946Z,99.30
2022-11-20T21:51:58.790Z,99.90
2022-11-20T21:54:26.971Z,99.90
2022-11-20T21:56:54.969Z,99.90
2022-11-20T21:59:23.188Z,99.10
2022-11-20T22:01:51.105Z,99.40
2022-11-20T22:04:22.813Z,99.90
2022-11-20T22:06:50.880Z,99.10
2022-11-20T22:09:18.705Z,98.80
2022-11-20T22:11:46.547Z,99.90
2022-11-20T22:14:24.183Z,99.90
2022-11-20T22:16:54.106Z,99.90
2022-11-20T22:19:24.227Z,99.60
2022-11-20T22:21:52.391Z,97.70
2022-11-20T22:24:22.223Z,99.70
2022-11-20T22:26:50.813Z,99.10
2022-11-20T22:29:21.682Z,99.90
2022-11-20T22:31:49.620Z,98.60
2022-11-20T22:34:19.424Z,96.90
2022-11-20T22:36:48.613Z,98.00
2022-11-20T22:39:17.465Z,97.60
2022-11-20T22:41:45.334Z,98.50
2022-11-20T22:44:16.166Z,99.90
2022-11-20T22:46:44.195Z,98.60
2022-11-20T22:49:12.082Z,97.20
2022-11-20T22:51:41.891Z,96.50
2022-11-20T22:54:13.566Z,97.20
2022-11-20T22:56:41.697Z,99.90
2022-11-20T22:59:10.009Z,99.90
2022-11-20T23:01:38.529Z,96.60
2022-11-20T23:04:08.366Z,95.20
2022-11-20T23:06:36.282Z,95.40
2022-11-20T23:09:04.528Z,97.00
2022-11-20T23:11:35.057Z,99.50
2022-11-20T23:14:04.911Z,98.30
2022-11-20T23:16:34.506Z,96.90
2022-11-20T23:19:03.744Z,96.80
2022-11-20T23:21:31.612Z,98.50
2022-11-20T23:24:00.701Z,98.70
2022-11-20T23:26:30.131Z,96.70
2022-11-20T23:29:00.759Z,96.90
2022-11-20T23:31:30.310Z,96.50
2022-11-20T23:33:59.346Z,98.50
2022-11-20T23:36:27.768Z,99.90
2022-11-20T23:38:55.700Z,97.20
2022-11-20T23:41:23.547Z,97.10
2022-11-20T23:43:51.537Z,96.50
2022-11-20T23:46:20.744Z,99.90
2022-11-20T23:48:48.618Z,99.90
2022-11-20T23:51:16.654Z,98.70
2022-11-20T23:53:44.519Z,96.90
2022-11-20T23:56:14.289Z,97.80
2022-11-20T23:58:42.855Z,98.90
